Time;durP1;ratioP1;P1;durP2;ratioP2;P2;SDS_P1;SDS_P2;PMS_P1;PMS_P2;Temp;Humidity;BMP_temperature;BMP_pressure;BME280_temperature;BME280_humidity;BME280_pressure;Samples;Min_cycle;Max_cycle;Signal;HPM_P1;HPM_P2
2021/01/01 00:04:04;;;;;;;105.10;48.03;;;6.10;82.00;;;;;;10001096;28;20029;-69
2021/01/01 00:08:55;;;;;;;19.65;9.05;;;6.40;80.90;;;;;;9997753;28;20041;-69
2021/01/01 00:13:46;;;;;;;15.05;7.78;;;6.20;81.70;;;;;;9999939;28;20029;-68
2021/01/01 00:18:37;;;;;;;13.40;6.78;;;6.00;82.70;;;;;;10002655;28;20175;-69
2021/01/01 00:23:28;;;;;;;14.50;7.30;;;5.90;83.10;;;;;;10004207;28;20041;-69
2021/01/01 00:28:18;;;;;;;14.98;7.90;;;5.80;83.00;;;;;;10005208;28;20026;-64
2021/01/01 00:33:09;;;;;;;16.10;8.23;;;5.90;82.90;;;;;;9995091;28;20039;-65
2021/01/01 00:37:59;;;;;;;16.35;10.00;;;5.80;83.10;;;;;;10000231;28;20038;-64
2021/01/01 00:42:50;;;;;;;14.05;7.28;;;5.90;83.00;;;;;;10000947;28;20421;-64
2021/01/01 00:47:46;;;;;;;17.60;9.48;;;5.70;83.00;;;;;;9994971;28;20077;-67
2021/01/01 00:52:37;;;;;;;24.45;10.50;;;5.70;82.90;;;;;;9993342;28;20166;-67
2021/01/01 00:57:27;;;;;;;23.20;12.00;;;5.60;83.20;;;;;;9999496;28;20513;-65
2021/01/01 01:02:18;;;;;;;20.52;9.75;;;5.70;83.20;;;;;;10000040;28;20033;-69
2021/01/01 01:07:08;;;;;;;15.75;7.72;;;5.70;82.80;;;;;;9998596;28;20091;-67
2021/01/01 01:11:59;;;;;;;15.48;7.40;;;5.70;82.90;;;;;;10001640;28;20037;-65
2021/01/01 01:16:49;;;;;;;16.50;7.18;;;5.60;82.80;;;;;;10004245;28;20045;-64
2021/01/01 01:21:40;;;;;;;87.60;41.47;;;5.70;82.80;;;;;;9993006;28;20039;-62
2021/01/01 01:26:30;;;;;;;65.68;32.58;;;6.10;81.60;;;;;;10005517;28;20033;-63
2021/01/01 01:31:21;;;;;;;28.92;16.23;;;6.30;80.70;;;;;;10007794;28;20503;-67
2021/01/01 01:36:13;;;;;;;34.85;20.38;;;6.30;80.60;;;;;;10008146;28;20510;-69
2021/01/01 01:41:04;;;;;;;14.20;8.02;;;6.30;80.40;;;;;;10007175;28;20034;-72
2021/01/01 01:45:55;;;;;;;16.15;7.88;;;6.00;81.70;;;;;;10011388;28;20054;-68
2021/01/01 01:50:46;;;;;;;15.20;6.90;;;5.80;82.30;;;;;;10008317;28;20036;-67
2021/01/01 01:55:37;;;;;;;12.00;6.25;;;5.60;83.00;;;;;;10006695;28;20551;-67
2021/01/01 02:05:28;;;;;;;9.27;5.05;;;5.50;83.00;;;;;;10001685;28;20064;-71
2021/01/01 02:10:20;;;;;;;10.60;5.28;;;5.50;82.70;;;;;;10004470;28;20038;-70
2021/01/01 02:15:10;;;;;;;9.68;4.95;;;5.50;82.90;;;;;;9997122;28;20030;-69
2021/01/01 02:20:07;;;;;;;7.40;4.63;;;5.50;83.00;;;;;;10007411;28;20041;-69
2021/01/01 02:24:58;;;;;;;6.80;3.83;;;5.60;82.60;;;;;;10009406;28;20029;-70
2021/01/01 02:29:48;;;;;;;7.63;4.25;;;5.40;82.80;;;;;;10002135;28;20041;-68
2021/01/01 02:34:39;;;;;;;12.13;4.88;;;5.40;83.00;;;;;;10007514;28;20108;-71
2021/01/01 02:39:30;;;;;;;5.82;3.67;;;5.30;82.90;;;;;;10000399;28;20084;-75
2021/01/01 02:44:20;;;;;;;7.90;3.95;;;5.20;83.20;;;;;;10006565;28;20042;-73
2021/01/01 02:49:12;;;;;;;5.10;3.00;;;5.30;83.00;;;;;;10000188;28;20133;-72
2021/01/01 02:54:05;;;;;;;6.22;2.85;;;5.20;83.00;;;;;;10000539;28;20038;-70
2021/01/01 02:58:55;;;;;;;3.97;2.95;;;5.20;82.60;;;;;;10006307;28;20038;-70
2021/01/01 03:03:46;;;;;;;5.05;3.20;;;5.10;82.90;;;;;;10004140;28;20029;-69
2021/01/01 03:08:36;;;;;;;4.47;2.78;;;5.10;83.00;;;;;;10000262;28;20766;-68
2021/01/01 03:13:27;;;;;;;5.32;3.00;;;5.10;82.90;;;;;;10003698;28;20519;-75
2021/01/01 03:18:17;;;;;;;104.47;47.38;;;5.00;82.50;;;;;;10004060;28;20032;-62
2021/01/01 03:23:08;;;;;;;31.05;17.75;;;5.30;81.90;;;;;;9999660;28;20240;-62
2021/01/01 03:27:58;;;;;;;10.10;5.22;;;5.40;80.60;;;;;;10000925;28;20038;-63
2021/01/01 03:32:49;;;;;;;6.30;2.90;;;5.20;81.00;;;;;;10008373;28;20514;-66
2021/01/01 03:37:40;;;;;;;4.88;3.08;;;5.00;81.50;;;;;;9994650;28;20520;-68
2021/01/01 03:42:30;;;;;;;3.83;2.38;;;4.90;81.50;;;;;;10000193;28;20040;-63
2021/01/01 03:47:21;;;;;;;3.55;2.70;;;4.70;81.40;;;;;;9997011;28;20050;-70
2021/01/01 03:52:12;;;;;;;6.95;3.38;;;4.90;81.80;;;;;;9997439;28;20574;-71
2021/01/01 03:57:02;;;;;;;4.15;2.80;;;4.80;80.90;;;;;;10001541;28;20419;-67
2021/01/01 04:01:53;;;;;;;4.68;2.20;;;4.90;80.50;;;;;;9999295;28;20029;-68
2021/01/01 04:06:43;;;;;;;3.72;2.80;;;4.80;80.30;;;;;;9996290;28;20089;-65
2021/01/01 04:11:35;;;;;;;3.88;2.13;;;4.80;80.20;;;;;;9998686;28;20034;-65
2021/01/01 04:16:26;;;;;;;4.65;2.10;;;4.80;80.20;;;;;;9999089;28;20030;-68
2021/01/01 04:21:16;;;;;;;4.72;2.38;;;4.90;79.90;;;;;;10002426;28;20403;-67
2021/01/01 04:26:09;;;;;;;5.75;2.88;;;4.90;79.50;;;;;;10001921;28;20036;-66
2021/01/01 04:31:00;;;;;;;15.45;8.40;;;4.90;79.50;;;;;;9993826;28;20052;-67
2021/01/01 04:35:51;;;;;;;7.88;3.92;;;5.00;79.10;;;;;;9998152;28;20026;-67
2021/01/01 04:40:41;;;;;;;4.00;2.20;;;5.10;78.90;;;;;;9997871;28;20029;-68
2021/01/01 04:45:32;;;;;;;4.03;2.08;;;5.00;78.90;;;;;;9994063;28;20030;-67
2021/01/01 04:50:23;;;;;;;3.65;2.03;;;4.90;78.90;;;;;;9995555;28;20065;-69
2021/01/01 04:55:15;;;;;;;4.20;2.15;;;4.80;78.70;;;;;;9997518;28;20132;-69
2021/01/01 05:00:06;;;;;;;3.35;1.77;;;4.70;78.70;;;;;;9996863;28;20561;-68
2021/01/01 05:04:57;;;;;;;5.18;2.50;;;4.70;78.50;;;;;;9993888;28;20036;-72
2021/01/01 05:09:49;;;;;;;16.50;6.32;;;4.70;78.50;;;;;;9996692;28;20052;-75
2021/01/01 05:14:40;;;;;;;17.65;7.65;;;4.80;77.90;;;;;;9996711;28;20033;-74
2021/01/01 05:19:41;;;;;;;5.93;2.72;;;4.80;77.80;;;;;;9991622;28;20038;-71
2021/01/01 05:24:39;;;;;;;3.90;2.08;;;4.80;77.60;;;;;;9996181;28;20049;-70
2021/01/01 05:29:33;;;;;;;4.15;2.13;;;4.80;77.70;;;;;;9992941;28;20026;-64
2021/01/01 05:34:25;;;;;;;5.00;2.20;;;4.80;78.00;;;;;;9994934;28;20435;-63
2021/01/01 05:39:18;;;;;;;3.58;1.98;;;4.70;78.00;;;;;;9993286;28;20112;-64
2021/01/01 05:44:25;;;;;;;3.70;1.85;;;4.80;77.80;;;;;;9995283;28;20034;-63
2021/01/01 05:49:18;;;;;;;;;;;4.80;77.70;;;;;;10000042;28;20056;-64
2021/01/01 05:54:10;;;;;;;4.15;1.85;;;4.80;77.80;;;;;;9995419;28;19917;-65
2021/01/01 05:59:02;;;;;;;3.15;1.85;;;4.80;77.70;;;;;;9996686;28;20034;-64
2021/01/01 06:03:53;;;;;;;6.15;2.42;;;4.80;77.70;;;;;;9998218;28;20041;-64
2021/01/01 06:08:47;;;;;;;4.03;2.05;;;4.80;77.80;;;;;;10000022;28;20038;-64
2021/01/01 06:13:37;;;;;;;3.08;1.98;;;4.70;77.70;;;;;;9997840;28;20073;-64
2021/01/01 06:18:30;;;;;;;4.25;2.20;;;4.70;77.80;;;;;;10002024;28;20088;-64
2021/01/01 06:23:39;;;;;;;3.88;2.22;;;4.70;77.70;;;;;;10004973;28;20048;-63
2021/01/01 06:28:30;;;;;;;6.05;2.60;;;4.70;77.80;;;;;;10006408;28;20109;-64
2021/01/01 06:33:22;;;;;;;4.47;1.95;;;4.60;77.90;;;;;;10001166;28;20088;-63
2021/01/01 06:38:35;;;;;;;5.88;2.53;;;4.50;78.10;;;;;;10000355;28;20039;-63
2021/01/01 06:43:55;;;;;;;5.50;2.63;;;4.40;78.00;;;;;;10004951;28;20152;-63
2021/01/01 06:48:45;;;;;;;4.65;2.70;;;4.40;78.20;;;;;;10004009;28;20038;-64
2021/01/01 06:53:36;;;;;;;4.40;2.58;;;4.40;78.50;;;;;;9999038;28;20034;-64
2021/01/01 06:58:26;;;;;;;3.65;2.30;;;4.30;78.50;;;;;;10003076;28;20097;-64
2021/01/01 07:03:29;;;;;;;7.10;2.47;;;4.30;78.60;;;;;;10005807;28;20046;-64
2021/01/01 07:08:44;;;;;;;5.22;2.05;;;4.30;78.80;;;;;;10006104;28;20399;-64
2021/01/01 07:14:01;;;;;;;4.05;2.33;;;4.40;79.20;;;;;;9996925;28;20034;-64
2021/01/01 07:18:53;;;;;;;4.50;2.63;;;4.40;79.80;;;;;;9998519;28;20035;-64
2021/01/01 07:23:45;;;;;;;4.40;2.95;;;4.30;79.60;;;;;;10001091;28;20065;-64
2021/01/01 07:28:40;;;;;;;5.63;2.67;;;4.40;79.80;;;;;;9995493;28;20045;-64
2021/01/01 07:33:32;;;;;;;6.60;3.00;;;4.40;79.90;;;;;;10002104;28;20040;-64
2021/01/01 07:38:24;;;;;;;4.57;2.50;;;4.50;79.90;;;;;;9998351;28;20684;-63
2021/01/01 07:43:16;;;;;;;4.85;2.80;;;4.50;80.10;;;;;;10001278;28;20064;-64
2021/01/01 07:48:07;;;;;;;3.08;2.63;;;4.60;79.90;;;;;;10000777;28;20056;-64
2021/01/01 07:53:04;;;;;;;5.70;2.67;;;4.60;79.90;;;;;;10003422;28;20044;-63
2021/01/01 07:58:00;;;;;;;5.90;3.30;;;4.50;80.20;;;;;;10002662;28;20145;-63
2021/01/01 08:02:53;;;;;;;4.00;2.75;;;4.40;80.20;;;;;;9997499;28;20069;-62
2021/01/01 08:07:44;;;;;;;3.70;2.65;;;4.30;80.30;;;;;;9996368;28;20061;-62
2021/01/01 08:12:36;;;;;;;6.43;3.03;;;4.30;80.30;;;;;;9998089;28;20057;-62
2021/01/01 08:17:29;;;;;;;3.88;2.38;;;4.20;80.70;;;;;;10005228;28;20032;-64
2021/01/01 08:22:26;;;;;;;4.18;2.33;;;4.10;81.00;;;;;;10001358;28;20045;-63
2021/01/01 08:27:18;;;;;;;6.25;2.47;;;4.00;81.20;;;;;;10001924;28;20041;-63
2021/01/01 08:32:09;;;;;;;6.28;3.00;;;4.00;81.20;;;;;;9996896;28;20025;-63
2021/01/01 08:37:00;;;;;;;4.28;2.28;;;4.00;81.30;;;;;;9998024;28;20029;-62
2021/01/01 08:41:50;;;;;;;5.43;2.10;;;4.10;81.30;;;;;;10000003;28;20060;-63
2021/01/01 08:46:41;;;;;;;4.53;2.47;;;4.00;81.20;;;;;;9999342;28;20033;-63
2021/01/01 08:51:32;;;;;;;5.35;2.65;;;4.10;81.40;;;;;;9995921;28;20030;-63
2021/01/01 08:56:23;;;;;;;5.30;2.38;;;4.10;81.40;;;;;;9998651;28;20076;-64
2021/01/01 09:01:15;;;;;;;6.38;3.13;;;4.20;81.60;;;;;;9994793;28;20065;-63
2021/01/01 09:06:14;;;;;;;3.95;1.85;;;4.30;81.60;;;;;;9999618;28;20030;-64
2021/01/01 09:11:22;;;;;;;4.93;2.20;;;4.50;81.70;;;;;;9991104;28;20348;-64
2021/01/01 09:16:12;;;;;;;4.28;2.15;;;4.70;81.40;;;;;;9995873;28;20022;-64
2021/01/01 09:21:14;;;;;;;5.18;2.45;;;4.70;81.50;;;;;;9998640;28;20026;-69
2021/01/01 09:26:05;;;;;;;4.63;2.08;;;4.80;81.30;;;;;;9996466;28;20037;-71
2021/01/01 09:30:56;;;;;;;3.88;2.53;;;4.90;81.40;;;;;;10001010;28;20091;-70
2021/01/01 09:35:47;;;;;;;4.70;2.55;;;4.80;81.40;;;;;;9999794;28;20026;-70
2021/01/01 09:40:38;;;;;;;5.15;2.60;;;4.90;81.50;;;;;;10002785;28;20488;-71
2021/01/01 09:45:29;;;;;;;4.65;2.28;;;4.90;81.20;;;;;;9999493;28;20579;-70
2021/01/01 09:50:19;;;;;;;4.53;2.67;;;5.10;81.10;;;;;;10027652;28;20034;-70
2021/01/01 09:55:10;;;;;;;7.20;3.10;;;5.10;80.90;;;;;;10004696;28;20019;-71
2021/01/01 10:00:01;;;;;;;3.58;2.25;;;5.20;80.50;;;;;;10005683;28;20033;-70
2021/01/01 10:04:52;;;;;;;5.63;2.72;;;5.00;81.00;;;;;;10004911;28;20042;-71
2021/01/01 10:09:43;;;;;;;3.58;2.42;;;4.90;81.20;;;;;;10002691;28;20045;-70
2021/01/01 10:14:35;;;;;;;5.60;2.75;;;4.80;81.30;;;;;;10005100;28;20068;-70
2021/01/01 10:19:25;;;;;;;4.85;2.55;;;5.00;81.20;;;;;;10007649;28;20038;-70
2021/01/01 10:24:16;;;;;;;4.53;2.72;;;4.90;80.80;;;;;;10005076;28;20040;-69
2021/01/01 10:29:06;;;;;;;4.82;2.33;;;4.80;81.20;;;;;;10010552;28;20042;-68
2021/01/01 10:33:57;;;;;;;3.83;2.25;;;4.80;81.40;;;;;;10005951;28;20034;-67
2021/01/01 10:38:48;;;;;;;4.03;2.65;;;4.70;81.20;;;;;;10004082;28;20042;-71
2021/01/01 10:43:39;;;;;;;4.18;2.53;;;4.60;81.40;;;;;;10003588;28;20046;-68
2021/01/01 10:48:29;;;;;;;6.10;2.50;;;4.60;81.30;;;;;;10003040;28;20042;-67
2021/01/01 10:53:20;;;;;;;5.50;2.65;;;4.80;81.10;;;;;;10018756;28;20038;-67
2021/01/01 10:58:10;;;;;;;3.80;2.45;;;4.90;81.30;;;;;;10003180;28;20117;-66
2021/01/01 11:03:01;;;;;;;3.88;2.50;;;5.00;81.20;;;;;;10002150;28;20034;-67
2021/01/01 11:07:51;;;;;;;58.15;26.27;;;5.00;81.00;;;;;;10003538;28;20049;-65
2021/01/01 11:12:42;;;;;;;23.52;14.80;;;5.30;80.50;;;;;;10008426;28;20033;-69
2021/01/01 12:25:07;;;;;;;9.18;3.92;;;7.10;79.00;;;;;;10041594;28;20056;-68
2021/01/01 12:29:57;;;;;;;8.13;3.78;;;6.80;78.90;;;;;;10019672;28;20720;-68
2021/01/01 12:34:48;;;;;;;9.02;4.38;;;6.40;79.10;;;;;;10042158;28;20024;-67
2021/01/01 12:39:39;;;;;;;8.05;4.10;;;6.20;78.80;;;;;;10046634;28;20446;-67
2021/01/01 12:44:31;;;;;;;7.72;4.57;;;6.10;78.50;;;;;;10025202;28;20104;-67
2021/01/01 12:49:21;;;;;;;10.55;4.53;;;6.10;78.00;;;;;;9997422;28;20045;-68
2021/01/01 12:54:12;;;;;;;9.40;4.00;;;6.20;77.70;;;;;;9993473;28;20036;-67
2021/01/01 12:59:03;;;;;;;9.90;4.05;;;6.10;77.50;;;;;;9992590;28;20038;-67
2021/01/01 13:03:54;;;;;;;10.30;4.60;;;6.30;77.20;;;;;;9995491;28;20034;-67
2021/01/01 13:08:44;;;;;;;9.82;3.90;;;6.20;77.20;;;;;;9992614;28;20033;-67
2021/01/01 13:13:35;;;;;;;11.20;5.72;;;6.20;76.80;;;;;;9991406;28;20121;-67
2021/01/01 13:18:25;;;;;;;10.07;4.53;;;6.10;77.30;;;;;;9996328;28;20030;-66
2021/01/01 13:23:16;;;;;;;10.95;5.10;;;5.80;77.40;;;;;;10002518;28;20045;-67
2021/01/01 13:28:06;;;;;;;11.85;6.38;;;5.90;77.40;;;;;;10004729;28;20393;-69
2021/01/01 13:32:57;;;;;;;8.82;4.53;;;5.90;76.80;;;;;;9998898;28;20080;-68
2021/01/01 13:37:48;;;;;;;12.32;5.18;;;5.70;76.40;;;;;;9997616;28;20381;-67
2021/01/01 13:42:38;;;;;;;8.95;5.15;;;5.80;77.10;;;;;;10006025;28;20140;-68
2021/01/01 13:47:29;;;;;;;9.15;5.05;;;6.00;76.80;;;;;;10000634;28;20042;-69
2021/01/01 13:52:19;;;;;;;10.10;5.13;;;6.00;77.10;;;;;;10004077;28;20066;-67
2021/01/01 13:57:10;;;;;;;13.20;5.78;;;6.00;76.20;;;;;;10003048;28;20042;-67
2021/01/01 14:02:00;;;;;;;12.43;6.13;;;6.00;76.30;;;;;;10002019;28;20036;-66
2021/01/01 14:06:51;;;;;;;10.95;5.63;;;6.00;76.00;;;;;;10003310;28;20397;-68
2021/01/01 14:11:51;;;;;;;13.60;5.93;;;5.70;76.00;;;;;;9999955;28;20352;-68
2021/01/01 14:16:52;;;;;;;11.70;5.32;;;5.70;76.30;;;;;;9995687;28;20042;-68
2021/01/01 14:21:44;;;;;;;14.95;6.57;;;5.70;75.30;;;;;;10001607;28;20053;-70
2021/01/01 14:26:34;;;;;;;12.52;5.10;;;5.60;75.90;;;;;;9996762;28;20045;-67
2021/01/01 14:31:25;;;;;;;10.13;5.15;;;5.60;75.20;;;;;;9998704;28;20044;-67
2021/01/01 14:36:15;;;;;;;12.30;4.22;;;5.60;75.60;;;;;;10002361;28;20030;-67
2021/01/01 14:41:06;;;;;;;14.32;7.47;;;5.50;75.20;;;;;;10002531;28;20033;-67
2021/01/01 14:45:57;;;;;;;12.82;6.05;;;5.50;75.20;;;;;;10000059;28;20131;-67
2021/01/01 14:50:47;;;;;;;13.25;5.68;;;5.60;75.20;;;;;;10001565;28;20030;-67
2021/01/01 14:55:38;;;;;;;12.73;5.82;;;5.50;74.90;;;;;;9997322;28;20096;-67
2021/01/01 15:00:28;;;;;;;10.13;4.57;;;5.50;74.50;;;;;;10002709;28;20547;-67
2021/01/01 15:05:19;;;;;;;11.68;4.85;;;5.40;74.80;;;;;;10000962;28;20411;-67
2021/01/01 15:10:10;;;;;;;8.43;4.15;;;5.50;74.70;;;;;;9999202;28;20026;-67
2021/01/01 15:15:00;;;;;;;8.07;4.80;;;5.40;74.60;;;;;;10000175;28;20018;-67
2021/01/01 15:19:51;;;;;;;12.80;5.32;;;5.40;74.60;;;;;;9993498;28;20030;-67
2021/01/01 15:24:42;;;;;;;12.77;5.78;;;5.40;74.80;;;;;;9997120;28;20476;-67
2021/01/01 15:29:32;;;;;;;16.48;6.05;;;5.30;74.70;;;;;;10003511;28;20030;-67
2021/01/01 15:34:23;;;;;;;13.05;5.13;;;5.40;74.60;;;;;;9999930;28;20033;-67
2021/01/01 15:39:13;;;;;;;8.68;5.10;;;5.30;74.80;;;;;;10000072;28;20057;-66
2021/01/01 15:44:04;;;;;;;10.52;5.45;;;5.20;74.80;;;;;;9994582;28;20405;-65
2021/01/01 15:48:54;;;;;;;10.88;5.30;;;5.20;74.70;;;;;;10002058;28;20048;-66
2021/01/01 15:53:45;;;;;;;13.55;6.22;;;5.20;74.60;;;;;;9995247;28;20042;-67
2021/01/01 15:58:36;;;;;;;15.35;6.28;;;5.20;74.60;;;;;;9999062;28;20061;-66
2021/01/01 16:03:26;;;;;;;18.33;8.18;;;5.30;74.40;;;;;;9995823;28;20496;-66
2021/01/01 16:08:17;;;;;;;17.02;6.47;;;5.20;74.10;;;;;;9994684;28;20167;-66
2021/01/01 16:13:07;;;;;;;11.95;5.32;;;5.10;74.60;;;;;;9996584;28;20393;-67
2021/01/01 16:17:58;;;;;;;16.27;7.07;;;5.10;75.30;;;;;;9998399;28;20033;-66
2021/01/01 16:22:49;;;;;;;12.93;6.70;;;5.00;74.40;;;;;;9996773;28;20427;-66
2021/01/01 16:27:40;;;;;;;15.27;6.40;;;5.10;74.40;;;;;;9998966;28;20106;-67
2021/01/01 16:32:30;;;;;;;10.60;5.55;;;5.10;74.50;;;;;;9999634;28;20038;-67
2021/01/01 16:37:21;;;;;;;11.38;6.00;;;5.10;74.40;;;;;;9994748;28;20034;-67
2021/01/01 16:42:12;;;;;;;13.18;5.72;;;5.10;74.50;;;;;;9994873;28;20855;-67
2021/01/01 16:47:03;;;;;;;9.73;4.35;;;5.10;74.70;;;;;;9995578;28;20054;-67
2021/01/01 16:51:54;;;;;;;14.70;5.82;;;5.10;74.80;;;;;;9995113;28;20030;-67
2021/01/01 16:56:50;;;;;;;14.98;6.15;;;5.10;74.80;;;;;;9994366;28;20034;-67
2021/01/01 17:01:45;;;;;;;24.60;10.02;;;5.10;74.70;;;;;;9994799;28;20033;-67
2021/01/01 17:06:36;;;;;;;16.42;7.22;;;5.10;74.70;;;;;;9994811;28;20061;-67
2021/01/01 17:11:26;;;;;;;12.15;5.32;;;5.10;74.70;;;;;;9993393;28;20034;-67
2021/01/01 17:16:27;;;;;;;12.20;4.47;;;5.10;74.80;;;;;;9997400;28;20038;-67
2021/01/01 17:21:23;;;;;;;14.15;5.43;;;5.10;74.80;;;;;;9993570;28;20645;-67
2021/01/01 17:26:16;;;;;;;11.68;5.03;;;5.10;74.80;;;;;;9992162;28;20045;-66
2021/01/01 17:31:07;;;;;;;10.23;5.20;;;5.20;74.60;;;;;;9994858;28;20034;-66
2021/01/01 17:35:58;;;;;;;12.88;5.68;;;5.10;74.90;;;;;;9991674;28;20026;-66
2021/01/01 17:40:48;;;;;;;12.13;4.78;;;5.10;74.90;;;;;;9996446;28;20053;-66
2021/01/01 17:45:39;;;;;;;12.30;6.15;;;5.10;74.80;;;;;;9994308;28;20517;-67
2021/01/01 17:50:32;;;;;;;11.13;5.70;;;5.20;74.90;;;;;;9997990;28;20038;-67
2021/01/01 17:55:22;;;;;;;15.25;6.10;;;5.10;74.80;;;;;;9994233;28;20117;-67
2021/01/01 18:00:13;;;;;;;13.15;5.20;;;5.10;75.20;;;;;;9993158;28;20021;-67
2021/01/01 18:05:04;;;;;;;14.23;5.75;;;5.10;75.10;;;;;;9997316;28;20029;-67
2021/01/01 18:09:55;;;;;;;12.10;6.18;;;5.10;75.20;;;;;;10000624;28;20030;-67
2021/01/01 18:14:46;;;;;;;15.90;5.85;;;5.10;75.10;;;;;;10003072;28;20452;-67
2021/01/01 18:19:36;;;;;;;15.48;6.35;;;5.10;75.50;;;;;;10000423;28;20057;-67
2021/01/01 18:24:28;;;;;;;13.18;5.45;;;5.00;75.70;;;;;;10002351;28;20113;-66
2021/01/01 18:29:21;;;;;;;13.77;6.10;;;4.90;76.20;;;;;;10003038;28;20030;-66
2021/01/01 18:34:23;;;;;;;13.75;6.93;;;4.90;76.30;;;;;;9997894;28;20404;-67
2021/01/01 18:39:14;;;;;;;15.15;6.82;;;4.90;75.90;;;;;;10001094;28;20029;-67
2021/01/01 18:44:10;;;;;;;18.77;7.20;;;4.80;76.70;;;;;;9999096;28;20040;-67
2021/01/01 18:49:02;;;;;;;17.58;5.90;;;4.70;76.40;;;;;;9998882;28;20037;-67
2021/01/01 18:54:06;;;;;;;19.25;6.85;;;4.70;76.90;;;;;;9998291;28;20040;-66
2021/01/01 18:59:08;;;;;;;17.25;6.80;;;4.60;76.70;;;;;;10000968;28;20116;-68
2021/01/01 19:04:16;;;;;;;18.05;6.68;;;4.50;76.90;;;;;;9994567;28;20595;-66
2021/01/01 19:09:08;;;;;;;14.57;6.32;;;4.60;76.90;;;;;;9995750;28;20119;-67
2021/01/01 19:13:59;;;;;;;11.75;6.20;;;4.70;77.00;;;;;;10001103;28;20515;-67
2021/01/01 19:18:58;;;;;;;12.73;6.30;;;4.70;77.00;;;;;;9995765;28;20033;-67
2021/01/01 19:23:52;;;;;;;11.57;5.72;;;4.60;77.30;;;;;;10001351;28;20260;-65
2021/01/01 19:28:55;;;;;;;16.42;6.60;;;4.60;77.40;;;;;;9996417;28;20029;-69
2021/01/01 19:34:24;;;;;;;10.63;5.15;;;4.60;77.70;;;;;;9999079;28;20110;-67
2021/01/01 19:39:35;;;;;;;9.02;4.10;;;4.60;77.60;;;;;;10000227;28;20042;-66
2021/01/01 19:45:00;;;;;;;12.38;5.68;;;4.50;78.10;;;;;;9998217;28;20034;-66
2021/01/01 19:50:05;;;;;;;14.43;4.82;;;4.50;77.80;;;;;;10002890;28;20407;-65
2021/01/01 19:55:11;;;;;;;12.77;6.47;;;4.40;78.10;;;;;;9998095;28;20026;-65
2021/01/01 20:00:15;;;;;;;10.23;5.55;;;4.30;78.20;;;;;;10000701;28;20038;-66
2021/01/01 20:05:06;;;;;;;11.52;4.80;;;4.40;78.60;;;;;;9998543;28;20346;-67
2021/01/01 20:10:01;;;;;;;18.30;6.15;;;4.30;78.80;;;;;;9999674;28;20026;-66
2021/01/01 20:14:56;;;;;;;15.43;5.75;;;4.20;78.90;;;;;;9997878;28;20056;-65
2021/01/01 20:20:12;;;;;;;12.33;5.37;;;4.30;78.90;;;;;;9998723;28;20186;-67
2021/01/01 20:25:03;;;;;;;9.52;5.82;;;4.20;79.10;;;;;;10000035;28;20301;-67
2021/01/01 20:30:02;;;;;;;12.27;5.28;;;4.20;79.10;;;;;;9995628;28;20412;-66
2021/01/01 20:34:54;;;;;;;15.65;5.43;;;4.30;79.20;;;;;;9995602;28;20028;-67
2021/01/01 20:40:10;;;;;;;12.70;5.82;;;4.30;79.40;;;;;;10010832;28;20463;-66
2021/01/01 20:46:03;;;;;;;14.13;6.72;;;4.20;79.80;;;;;;9990308;28;20196;-67
2021/01/01 20:56:10;;;;;;;14.82;6.55;;;4.20;79.60;;;;;;9992979;28;20050;-66
2021/01/01 21:01:09;;;;;;;13.38;5.50;;;4.20;79.90;;;;;;9997902;28;20037;-66
2021/01/01 21:05:59;;;;;;;16.55;6.65;;;4.10;80.20;;;;;;9990217;28;20026;-66
2021/01/01 21:11:18;;;;;;;10.65;5.28;;;4.20;80.50;;;;;;9998076;28;20525;-66
2021/01/01 21:16:11;;;;;;;11.52;5.15;;;4.20;81.00;;;;;;9991405;28;20018;-67
2021/01/01 21:21:11;;;;;;;14.43;6.20;;;4.20;80.20;;;;;;9992990;28;20041;-67
2021/01/01 21:26:28;;;;;;;13.90;5.97;;;4.30;80.10;;;;;;9995759;28;20030;-66
2021/01/01 21:31:37;;;;;;;12.80;5.70;;;4.30;80.10;;;;;;9997688;28;20026;-67
2021/01/01 21:36:54;;;;;;;15.10;5.72;;;4.20;80.20;;;;;;9996034;28;20038;-67
2021/01/01 21:42:04;;;;;;;12.55;5.15;;;4.20;80.30;;;;;;9993807;28;20109;-67
2021/01/01 21:47:33;;;;;;;12.38;4.82;;;4.20;80.40;;;;;;10004985;28;20057;-67
2021/01/01 21:52:25;;;;;;;11.88;5.75;;;4.10;81.30;;;;;;9999101;28;20674;-67
2021/01/01 21:57:17;;;;;;;10.95;5.20;;;4.10;81.50;;;;;;10003309;28;20038;-68
2021/01/01 22:02:09;;;;;;;12.18;5.07;;;4.00;81.50;;;;;;10002824;28;20057;-67
2021/01/01 22:07:01;;;;;;;10.95;5.25;;;4.00;81.80;;;;;;9985442;28;20060;-68
2021/01/01 22:11:51;;;;;;;13.43;5.80;;;4.00;81.80;;;;;;9984383;28;20515;-67
2021/01/01 22:16:48;;;;;;;11.15;5.43;;;4.10;81.30;;;;;;10002877;28;20092;-70
2021/01/01 22:21:39;;;;;;;10.25;4.88;;;4.10;81.20;;;;;;10001069;28;20050;-67
2021/01/01 22:26:29;;;;;;;11.05;5.18;;;4.00;82.10;;;;;;10000252;28;20538;-67
2021/01/01 22:31:20;;;;;;;9.73;4.15;;;4.00;81.90;;;;;;9997834;28;20026;-67
2021/01/01 22:36:12;;;;;;;21.00;7.45;;;4.00;82.70;;;;;;10001658;28;20076;-67
2021/01/01 22:41:03;;;;;;;17.98;8.55;;;3.90;82.10;;;;;;9999464;28;20559;-69
2021/01/01 22:45:53;;;;;;;17.65;6.78;;;3.90;81.70;;;;;;9995797;28;20101;-67
2021/01/01 22:50:44;;;;;;;20.17;8.00;;;4.00;81.60;;;;;;9999232;28;20104;-67
2021/01/01 22:55:39;;;;;;;12.05;6.05;;;3.80;81.70;;;;;;9997927;28;20041;-68
2021/01/01 23:00:32;;;;;;;16.00;6.88;;;3.80;82.70;;;;;;10006162;28;20042;-67
2021/01/01 23:05:28;;;;;;;10.02;5.90;;;3.90;82.00;;;;;;9999562;28;20044;-66
2021/01/01 23:10:19;;;;;;;16.85;8.40;;;3.90;82.40;;;;;;9999438;28;20139;-66
2021/01/01 23:15:11;;;;;;;12.32;5.70;;;3.90;81.90;;;;;;10003335;28;20069;-66
2021/01/01 23:20:03;;;;;;;13.55;6.28;;;3.80;82.40;;;;;;10001626;28;20541;-67
2021/01/01 23:25:12;;;;;;;13.52;7.28;;;3.70;82.70;;;;;;9998125;28;20049;-66
2021/01/01 23:30:05;;;;;;;12.30;5.43;;;3.70;82.70;;;;;;9999139;28;20046;-66
2021/01/01 23:35:08;;;;;;;11.98;5.35;;;3.70;82.60;;;;;;9997708;28;20037;-66
2021/01/01 23:40:09;;;;;;;8.52;4.88;;;3.70;82.80;;;;;;9994833;28;20455;-67
2021/01/01 23:45:03;;;;;;;11.60;6.28;;;3.70;82.70;;;;;;10001857;28;20034;-66
2021/01/01 23:50:02;;;;;;;9.73;4.82;;;3.60;82.90;;;;;;10000032;28;20092;-67
2021/01/01 23:54:59;;;;;;;9.50;5.28;;;3.70;83.40;;;;;;10003936;28;20080;-67
2021/01/01 23:59:49;;;;;;;9.73;4.93;;;3.70;83.70;;;;;;9994781;28;20087;-66
